Pacific Grove, CA

2:42 AM PDT on July 28, 2016 (GMT -0700)
Lover's Point | | Change Station

Elev 95 ft 36.62 °N, 121.92 °W | Updated 48 seconds ago

Mist
Mist
52.9 °F
Feels Like 52.9 °F
N
0.0
Wind Variable Wind from WNW
Gusts 1.0 mph

Today
High -- | Low -- °F
--% Chance of Precip.
Yesterday
High -- | Low -- °F
Precip. -- in
Pressure 29.93 in
Visibility 0.8 miles
Clouds
Dew Point 52 °F
Humidity 97%
Rainfall 0.00 in
Snow Depth Not available.
6:11 AM 8:16 PM
Waning Crescent, 34% visible
SPECI KMRY 280935Z AUTO 00000KT 3/4SM BR VV001 12/11 A2993 RMK AO2 T01170111 TSNO
Pressure 29.93 in
Visibility 0.8 miles
Clouds
Dew Point 52 °F
Humidity 97%
Rainfall 0.00 in
Snow Depth Not available.
6:11 AM 8:16 PM
Waning Crescent, 34% visible
SPECI KMRY 280935Z AUTO 00000KT 3/4SM BR VV001 12/11 A2993 RMK AO2 T01170111 TSNO

10-Day Weather Forecast

Almanac

Astronomy

Jul. 28, 2016 Rise Set
Actual Time
Civil Twilight
Nautical Twilight
Astronomical Twilight
Moon
Length of Visible Light
Length of Day
Tomorrow will be .
, % of the Moon is Illuminated

Today's Extremes

State Highs State Lows

Community

WunderPhotos

Upload Photos

1,928,070 photos uploaded!

WunderBlog® & News

Nearby

Air Quality

  Air Quality AQ Index Pollutant
Not available.

Snow Depth

Station Depth Elevation

Earthquake Activity

City Distance Mag. Time & Date
Minimum magnitude displayed is 2.5.

Coastal Water Temperatures

Place Temperature

Stations

Nearby Weather Stations

Station Location Temp. Windchill Dew Point Humidity Wind Precip. Elev Updated Type
                   

Watches & Warnings

There are currently no watches in effect.